sensor_id;sensor_type;location;lat;lon;timestamp;P1;durP1;ratioP1;P2;durP2;ratioP2
57800;SDS011;43627;42.728;23.256;2023-05-14T00:01:14;2.90;;;1.20;;
57800;SDS011;43627;42.728;23.256;2023-05-14T00:03:41;1.88;;;1.10;;
57800;SDS011;43627;42.728;23.256;2023-05-14T00:06:08;1.40;;;1.00;;
57800;SDS011;43627;42.728;23.256;2023-05-14T00:08:36;4.00;;;1.10;;
57800;SDS011;43627;42.728;23.256;2023-05-14T00:11:02;0.88;;;0.70;;
57800;SDS011;43627;42.728;23.256;2023-05-14T00:13:29;2.20;;;1.15;;
57800;SDS011;43627;42.728;23.256;2023-05-14T00:15:56;2.35;;;0.93;;
57800;SDS011;43627;42.728;23.256;2023-05-14T00:18:22;1.30;;;1.00;;
57800;SDS011;43627;42.728;23.256;2023-05-14T00:20:49;3.72;;;1.58;;
57800;SDS011;43627;42.728;23.256;2023-05-14T00:23:20;3.70;;;1.00;;
57800;SDS011;43627;42.728;23.256;2023-05-14T00:25:47;2.53;;;1.23;;
57800;SDS011;43627;42.728;23.256;2023-05-14T00:28:14;3.08;;;1.15;;
57800;SDS011;43627;42.728;23.256;2023-05-14T00:30:43;1.08;;;0.90;;
57800;SDS011;43627;42.728;23.256;2023-05-14T00:33:10;5.90;;;1.00;;
57800;SDS011;43627;42.728;23.256;2023-05-14T00:35:37;1.73;;;1.13;;
57800;SDS011;43627;42.728;23.256;2023-05-14T00:38:03;1.95;;;1.23;;
57800;SDS011;43627;42.728;23.256;2023-05-14T00:40:30;1.15;;;1.02;;
57800;SDS011;43627;42.728;23.256;2023-05-14T00:42:57;2.55;;;1.40;;
57800;SDS011;43627;42.728;23.256;2023-05-14T00:45:24;1.38;;;0.80;;
57800;SDS011;43627;42.728;23.256;2023-05-14T00:47:51;2.63;;;1.00;;
57800;SDS011;43627;42.728;23.256;2023-05-14T00:50:18;0.88;;;0.77;;
57800;SDS011;43627;42.728;23.256;2023-05-14T00:52:46;1.77;;;1.10;;
57800;SDS011;43627;42.728;23.256;2023-05-14T00:55:13;10.38;;;1.30;;
57800;SDS011;43627;42.728;23.256;2023-05-14T00:57:42;2.78;;;1.17;;
57800;SDS011;43627;42.728;23.256;2023-05-14T01:00:09;1.52;;;0.90;;
57800;SDS011;43627;42.728;23.256;2023-05-14T01:02:36;1.42;;;1.05;;
57800;SDS011;43627;42.728;23.256;2023-05-14T01:05:03;3.28;;;1.00;;
57800;SDS011;43627;42.728;23.256;2023-05-14T01:15:36;0.95;;;0.82;;
57800;SDS011;43627;42.728;23.256;2023-05-14T01:18:08;2.15;;;0.98;;
57800;SDS011;43627;42.728;23.256;2023-05-14T01:20:36;2.42;;;1.52;;
57800;SDS011;43627;42.728;23.256;2023-05-14T01:23:03;1.48;;;0.98;;
57800;SDS011;43627;42.728;23.256;2023-05-14T01:25:30;1.77;;;0.93;;
57800;SDS011;43627;42.728;23.256;2023-05-14T01:28:05;1.30;;;1.00;;
57800;SDS011;43627;42.728;23.256;2023-05-14T01:30:39;0.95;;;0.70;;
57800;SDS011;43627;42.728;23.256;2023-05-14T01:33:12;1.13;;;0.80;;
57800;SDS011;43627;42.728;23.256;2023-05-14T01:35:41;1.75;;;0.98;;
57800;SDS011;43627;42.728;23.256;2023-05-14T01:38:09;0.85;;;0.80;;
57800;SDS011;43627;42.728;23.256;2023-05-14T01:40:37;2.20;;;1.30;;
57800;SDS011;43627;42.728;23.256;2023-05-14T01:43:05;1.40;;;0.82;;
57800;SDS011;43627;42.728;23.256;2023-05-14T01:45:33;0.88;;;0.50;;
57800;SDS011;43627;42.728;23.256;2023-05-14T01:48:01;1.23;;;0.85;;
57800;SDS011;43627;42.728;23.256;2023-05-14T01:50:28;1.27;;;0.70;;
57800;SDS011;43627;42.728;23.256;2023-05-14T01:52:55;1.60;;;1.10;;
57800;SDS011;43627;42.728;23.256;2023-05-14T01:55:22;2.25;;;0.80;;
57800;SDS011;43627;42.728;23.256;2023-05-14T01:57:53;16.58;;;1.00;;
57800;SDS011;43627;42.728;23.256;2023-05-14T02:00:22;0.70;;;0.63;;
57800;SDS011;43627;42.728;23.256;2023-05-14T02:02:51;3.45;;;1.02;;
57800;SDS011;43627;42.728;23.256;2023-05-14T02:05:18;0.93;;;0.65;;
57800;SDS011;43627;42.728;23.256;2023-05-14T02:07:45;1.17;;;0.90;;
57800;SDS011;43627;42.728;23.256;2023-05-14T02:10:11;1.10;;;0.60;;
57800;SDS011;43627;42.728;23.256;2023-05-14T02:12:38;2.67;;;1.58;;
57800;SDS011;43627;42.728;23.256;2023-05-14T02:15:05;3.05;;;0.70;;
57800;SDS011;43627;42.728;23.256;2023-05-14T02:17:34;1.17;;;0.77;;
57800;SDS011;43627;42.728;23.256;2023-05-14T02:20:00;2.63;;;1.50;;
57800;SDS011;43627;42.728;23.256;2023-05-14T02:22:27;0.55;;;0.55;;
57800;SDS011;43627;42.728;23.256;2023-05-14T02:24:54;0.88;;;0.60;;
57800;SDS011;43627;42.728;23.256;2023-05-14T02:27:21;1.08;;;0.70;;
57800;SDS011;43627;42.728;23.256;2023-05-14T02:29:47;2.28;;;0.93;;
57800;SDS011;43627;42.728;23.256;2023-05-14T02:32:14;1.52;;;0.77;;
57800;SDS011;43627;42.728;23.256;2023-05-14T02:34:41;1.23;;;0.88;;
57800;SDS011;43627;42.728;23.256;2023-05-14T02:37:08;2.33;;;0.65;;
57800;SDS011;43627;42.728;23.256;2023-05-14T02:39:34;1.63;;;0.80;;
57800;SDS011;43627;42.728;23.256;2023-05-14T02:42:01;1.33;;;0.70;;
57800;SDS011;43627;42.728;23.256;2023-05-14T02:44:28;1.17;;;0.50;;
57800;SDS011;43627;42.728;23.256;2023-05-14T02:46:57;1.50;;;1.02;;
57800;SDS011;43627;42.728;23.256;2023-05-14T02:49:23;0.93;;;0.75;;
57800;SDS011;43627;42.728;23.256;2023-05-14T02:51:50;1.98;;;1.00;;
57800;SDS011;43627;42.728;23.256;2023-05-14T02:54:17;2.33;;;0.82;;
57800;SDS011;43627;42.728;23.256;2023-05-14T02:56:43;1.27;;;0.82;;
57800;SDS011;43627;42.728;23.256;2023-05-14T02:59:10;0.90;;;0.70;;
57800;SDS011;43627;42.728;23.256;2023-05-14T03:01:37;4.03;;;1.10;;
57800;SDS011;43627;42.728;23.256;2023-05-14T03:04:04;1.38;;;0.90;;
57800;SDS011;43627;42.728;23.256;2023-05-14T03:06:30;2.13;;;1.65;;
57800;SDS011;43627;42.728;23.256;2023-05-14T03:08:57;0.73;;;0.60;;
57800;SDS011;43627;42.728;23.256;2023-05-14T03:11:24;2.38;;;0.82;;
57800;SDS011;43627;42.728;23.256;2023-05-14T03:13:50;0.88;;;0.70;;
57800;SDS011;43627;42.728;23.256;2023-05-14T03:16:17;0.70;;;0.70;;
57800;SDS011;43627;42.728;23.256;2023-05-14T03:18:44;1.50;;;0.80;;
57800;SDS011;43627;42.728;23.256;2023-05-14T03:21:11;0.82;;;0.63;;
57800;SDS011;43627;42.728;23.256;2023-05-14T03:23:37;1.05;;;0.68;;
57800;SDS011;43627;42.728;23.256;2023-05-14T03:26:04;1.80;;;0.60;;
57800;SDS011;43627;42.728;23.256;2023-05-14T03:28:32;1.05;;;0.90;;
57800;SDS011;43627;42.728;23.256;2023-05-14T03:30:58;0.82;;;0.80;;
57800;SDS011;43627;42.728;23.256;2023-05-14T03:33:26;1.02;;;0.55;;
57800;SDS011;43627;42.728;23.256;2023-05-14T03:35:53;0.82;;;0.82;;
57800;SDS011;43627;42.728;23.256;2023-05-14T03:38:20;1.10;;;0.77;;
57800;SDS011;43627;42.728;23.256;2023-05-14T03:40:46;2.10;;;0.88;;
57800;SDS011;43627;42.728;23.256;2023-05-14T03:43:13;1.98;;;0.60;;
57800;SDS011;43627;42.728;23.256;2023-05-14T03:45:40;2.80;;;1.15;;
57800;SDS011;43627;42.728;23.256;2023-05-14T03:48:07;1.10;;;0.70;;
57800;SDS011;43627;42.728;23.256;2023-05-14T03:50:33;4.32;;;0.85;;
57800;SDS011;43627;42.728;23.256;2023-05-14T03:53:00;1.17;;;0.85;;
57800;SDS011;43627;42.728;23.256;2023-05-14T03:55:27;1.25;;;0.90;;
57800;SDS011;43627;42.728;23.256;2023-05-14T03:57:53;1.50;;;0.82;;
57800;SDS011;43627;42.728;23.256;2023-05-14T04:00:20;1.73;;;0.82;;
57800;SDS011;43627;42.728;23.256;2023-05-14T04:02:48;1.20;;;0.80;;
57800;SDS011;43627;42.728;23.256;2023-05-14T04:05:15;1.33;;;0.93;;
57800;SDS011;43627;42.728;23.256;2023-05-14T04:07:42;1.83;;;0.70;;
57800;SDS011;43627;42.728;23.256;2023-05-14T04:10:11;1.77;;;1.13;;
57800;SDS011;43627;42.728;23.256;2023-05-14T04:12:38;1.55;;;0.98;;
57800;SDS011;43627;42.728;23.256;2023-05-14T04:15:05;3.47;;;1.05;;
57800;SDS011;43627;42.728;23.256;2023-05-14T04:17:32;5.43;;;1.00;;
57800;SDS011;43627;42.728;23.256;2023-05-14T04:20:00;1.35;;;0.95;;
57800;SDS011;43627;42.728;23.256;2023-05-14T04:22:27;1.10;;;0.93;;
57800;SDS011;43627;42.728;23.256;2023-05-14T04:24:53;1.13;;;1.02;;
57800;SDS011;43627;42.728;23.256;2023-05-14T04:27:20;1.83;;;1.10;;
57800;SDS011;43627;42.728;23.256;2023-05-14T04:29:48;1.17;;;1.00;;
57800;SDS011;43627;42.728;23.256;2023-05-14T04:32:15;1.77;;;1.00;;
57800;SDS011;43627;42.728;23.256;2023-05-14T04:34:43;1.65;;;0.70;;
57800;SDS011;43627;42.728;23.256;2023-05-14T04:37:10;1.92;;;1.40;;
57800;SDS011;43627;42.728;23.256;2023-05-14T04:39:36;1.50;;;0.98;;
57800;SDS011;43627;42.728;23.256;2023-05-14T04:42:03;4.30;;;1.08;;
57800;SDS011;43627;42.728;23.256;2023-05-14T04:44:32;4.38;;;0.88;;
57800;SDS011;43627;42.728;23.256;2023-05-14T04:46:59;2.42;;;1.40;;
57800;SDS011;43627;42.728;23.256;2023-05-14T04:49:27;2.72;;;0.93;;
57800;SDS011;43627;42.728;23.256;2023-05-14T04:51:54;1.92;;;1.10;;
57800;SDS011;43627;42.728;23.256;2023-05-14T04:54:21;1.48;;;1.13;;
57800;SDS011;43627;42.728;23.256;2023-05-14T04:56:48;1.80;;;0.98;;
57800;SDS011;43627;42.728;23.256;2023-05-14T04:59:15;1.35;;;0.85;;
57800;SDS011;43627;42.728;23.256;2023-05-14T05:01:42;1.70;;;0.80;;
57800;SDS011;43627;42.728;23.256;2023-05-14T05:04:08;0.75;;;0.73;;
57800;SDS011;43627;42.728;23.256;2023-05-14T05:06:35;1.52;;;0.95;;
57800;SDS011;43627;42.728;23.256;2023-05-14T05:09:02;1.10;;;0.82;;
57800;SDS011;43627;42.728;23.256;2023-05-14T05:11:29;0.98;;;0.80;;
57800;SDS011;43627;42.728;23.256;2023-05-14T05:13:56;2.05;;;1.38;;
57800;SDS011;43627;42.728;23.256;2023-05-14T05:16:23;1.23;;;0.80;;
57800;SDS011;43627;42.728;23.256;2023-05-14T05:18:50;1.55;;;0.98;;
57800;SDS011;43627;42.728;23.256;2023-05-14T05:21:17;1.85;;;1.02;;
57800;SDS011;43627;42.728;23.256;2023-05-14T05:23:43;1.75;;;1.13;;
57800;SDS011;43627;42.728;23.256;2023-05-14T05:26:10;1.30;;;1.05;;
57800;SDS011;43627;42.728;23.256;2023-05-14T05:28:36;1.50;;;1.15;;
57800;SDS011;43627;42.728;23.256;2023-05-14T05:31:03;1.67;;;1.38;;
57800;SDS011;43627;42.728;23.256;2023-05-14T05:33:31;1.83;;;1.10;;
57800;SDS011;43627;42.728;23.256;2023-05-14T05:36:01;3.17;;;1.30;;
57800;SDS011;43627;42.728;23.256;2023-05-14T05:38:28;1.85;;;1.38;;
57800;SDS011;43627;42.728;23.256;2023-05-14T05:40:54;1.60;;;1.08;;
57800;SDS011;43627;42.728;23.256;2023-05-14T05:43:21;2.53;;;1.40;;
57800;SDS011;43627;42.728;23.256;2023-05-14T05:45:47;2.47;;;1.33;;
57800;SDS011;43627;42.728;23.256;2023-05-14T05:48:14;2.38;;;1.15;;
57800;SDS011;43627;42.728;23.256;2023-05-14T05:50:41;2.08;;;1.52;;
57800;SDS011;43627;42.728;23.256;2023-05-14T05:53:10;2.40;;;1.77;;
57800;SDS011;43627;42.728;23.256;2023-05-14T05:55:37;3.00;;;1.45;;
57800;SDS011;43627;42.728;23.256;2023-05-14T05:58:04;1.98;;;1.33;;
57800;SDS011;43627;42.728;23.256;2023-05-14T06:00:30;6.45;;;2.38;;
57800;SDS011;43627;42.728;23.256;2023-05-14T06:02:57;2.38;;;1.83;;
57800;SDS011;43627;42.728;23.256;2023-05-14T06:05:24;4.45;;;1.85;;
57800;SDS011;43627;42.728;23.256;2023-05-14T06:07:51;3.33;;;1.58;;
57800;SDS011;43627;42.728;23.256;2023-05-14T06:10:18;2.33;;;1.80;;
57800;SDS011;43627;42.728;23.256;2023-05-14T06:12:45;3.20;;;1.70;;
57800;SDS011;43627;42.728;23.256;2023-05-14T06:15:12;2.00;;;1.42;;
57800;SDS011;43627;42.728;23.256;2023-05-14T06:17:39;3.00;;;1.83;;
57800;SDS011;43627;42.728;23.256;2023-05-14T06:20:06;2.85;;;1.95;;
57800;SDS011;43627;42.728;23.256;2023-05-14T06:22:34;2.65;;;2.03;;
57800;SDS011;43627;42.728;23.256;2023-05-14T06:25:00;2.55;;;1.85;;
57800;SDS011;43627;42.728;23.256;2023-05-14T06:27:27;2.95;;;1.80;;
57800;SDS011;43627;42.728;23.256;2023-05-14T06:29:54;3.90;;;2.10;;
57800;SDS011;43627;42.728;23.256;2023-05-14T06:32:21;6.15;;;4.18;;
57800;SDS011;43627;42.728;23.256;2023-05-14T06:34:48;6.20;;;2.53;;
57800;SDS011;43627;42.728;23.256;2023-05-14T06:37:14;2.22;;;1.75;;
57800;SDS011;43627;42.728;23.256;2023-05-14T06:39:41;2.30;;;1.85;;
57800;SDS011;43627;42.728;23.256;2023-05-14T06:42:15;3.78;;;2.30;;
57800;SDS011;43627;42.728;23.256;2023-05-14T06:44:42;4.88;;;3.00;;
57800;SDS011;43627;42.728;23.256;2023-05-14T06:47:09;4.22;;;2.80;;
57800;SDS011;43627;42.728;23.256;2023-05-14T06:49:37;2.97;;;2.17;;
57800;SDS011;43627;42.728;23.256;2023-05-14T06:52:04;5.88;;;2.60;;
57800;SDS011;43627;42.728;23.256;2023-05-14T06:54:31;5.85;;;2.40;;
57800;SDS011;43627;42.728;23.256;2023-05-14T06:56:58;3.05;;;2.05;;
57800;SDS011;43627;42.728;23.256;2023-05-14T06:59:24;11.40;;;3.35;;
57800;SDS011;43627;42.728;23.256;2023-05-14T07:01:51;7.07;;;3.17;;
57800;SDS011;43627;42.728;23.256;2023-05-14T07:04:18;4.25;;;2.90;;
57800;SDS011;43627;42.728;23.256;2023-05-14T07:06:45;2.90;;;2.55;;
57800;SDS011;43627;42.728;23.256;2023-05-14T07:09:15;6.22;;;2.92;;
57800;SDS011;43627;42.728;23.256;2023-05-14T07:11:45;4.93;;;3.17;;
57800;SDS011;43627;42.728;23.256;2023-05-14T07:14:12;4.85;;;2.45;;
57800;SDS011;43627;42.728;23.256;2023-05-14T07:16:38;6.90;;;2.53;;
57800;SDS011;43627;42.728;23.256;2023-05-14T07:19:06;6.82;;;3.08;;
57800;SDS011;43627;42.728;23.256;2023-05-14T07:21:33;5.70;;;3.13;;
57800;SDS011;43627;42.728;23.256;2023-05-14T07:24:01;4.47;;;2.50;;
57800;SDS011;43627;42.728;23.256;2023-05-14T07:26:27;3.72;;;2.45;;
57800;SDS011;43627;42.728;23.256;2023-05-14T07:28:54;4.65;;;3.35;;
57800;SDS011;43627;42.728;23.256;2023-05-14T07:31:21;5.60;;;3.15;;
57800;SDS011;43627;42.728;23.256;2023-05-14T07:33:47;6.45;;;3.85;;
57800;SDS011;43627;42.728;23.256;2023-05-14T07:36:14;6.05;;;3.38;;
57800;SDS011;43627;42.728;23.256;2023-05-14T07:38:41;5.85;;;3.28;;
57800;SDS011;43627;42.728;23.256;2023-05-14T07:41:07;9.32;;;4.53;;
57800;SDS011;43627;42.728;23.256;2023-05-14T07:43:34;6.07;;;3.55;;
57800;SDS011;43627;42.728;23.256;2023-05-14T07:46:01;7.20;;;3.78;;
57800;SDS011;43627;42.728;23.256;2023-05-14T07:48:27;7.00;;;4.22;;
57800;SDS011;43627;42.728;23.256;2023-05-14T07:50:54;5.30;;;3.65;;
57800;SDS011;43627;42.728;23.256;2023-05-14T07:53:21;5.95;;;3.35;;
57800;SDS011;43627;42.728;23.256;2023-05-14T07:55:48;5.05;;;3.83;;
57800;SDS011;43627;42.728;23.256;2023-05-14T07:58:18;7.45;;;4.10;;
57800;SDS011;43627;42.728;23.256;2023-05-14T08:00:46;9.18;;;4.90;;
57800;SDS011;43627;42.728;23.256;2023-05-14T08:03:12;5.72;;;3.45;;
57800;SDS011;43627;42.728;23.256;2023-05-14T08:05:40;6.60;;;3.50;;
57800;SDS011;43627;42.728;23.256;2023-05-14T08:08:07;5.72;;;3.30;;
57800;SDS011;43627;42.728;23.256;2023-05-14T08:10:33;6.32;;;2.83;;
57800;SDS011;43627;42.728;23.256;2023-05-14T08:13:00;5.53;;;3.10;;
57800;SDS011;43627;42.728;23.256;2023-05-14T08:15:27;5.93;;;3.30;;
57800;SDS011;43627;42.728;23.256;2023-05-14T08:17:53;6.00;;;3.42;;
57800;SDS011;43627;42.728;23.256;2023-05-14T08:20:21;5.25;;;3.15;;
57800;SDS011;43627;42.728;23.256;2023-05-14T08:22:48;5.20;;;2.83;;
57800;SDS011;43627;42.728;23.256;2023-05-14T08:25:15;6.97;;;3.95;;
57800;SDS011;43627;42.728;23.256;2023-05-14T08:27:41;6.70;;;3.38;;
57800;SDS011;43627;42.728;23.256;2023-05-14T08:30:08;6.50;;;3.30;;
57800;SDS011;43627;42.728;23.256;2023-05-14T08:32:35;5.82;;;3.53;;
57800;SDS011;43627;42.728;23.256;2023-05-14T08:35:04;5.55;;;3.63;;
57800;SDS011;43627;42.728;23.256;2023-05-14T08:37:31;6.25;;;3.00;;
57800;SDS011;43627;42.728;23.256;2023-05-14T08:39:57;7.10;;;3.90;;
57800;SDS011;43627;42.728;23.256;2023-05-14T08:42:24;7.00;;;4.28;;
57800;SDS011;43627;42.728;23.256;2023-05-14T08:44:59;8.50;;;4.63;;
57800;SDS011;43627;42.728;23.256;2023-05-14T08:47:28;5.53;;;3.13;;
57800;SDS011;43627;42.728;23.256;2023-05-14T08:50:05;3.83;;;2.78;;
57800;SDS011;43627;42.728;23.256;2023-05-14T08:52:33;5.47;;;3.17;;
57800;SDS011;43627;42.728;23.256;2023-05-14T08:55:03;4.60;;;3.38;;
57800;SDS011;43627;42.728;23.256;2023-05-14T08:57:31;5.20;;;3.43;;
57800;SDS011;43627;42.728;23.256;2023-05-14T08:59:59;8.52;;;3.63;;
57800;SDS011;43627;42.728;23.256;2023-05-14T09:02:27;6.13;;;3.97;;
57800;SDS011;43627;42.728;23.256;2023-05-14T09:04:59;6.90;;;3.25;;
57800;SDS011;43627;42.728;23.256;2023-05-14T09:07:27;8.02;;;4.38;;
57800;SDS011;43627;42.728;23.256;2023-05-14T09:09:54;4.68;;;3.05;;
57800;SDS011;43627;42.728;23.256;2023-05-14T09:12:21;5.55;;;3.55;;
57800;SDS011;43627;42.728;23.256;2023-05-14T09:14:48;3.40;;;2.67;;
57800;SDS011;43627;42.728;23.256;2023-05-14T09:17:15;5.43;;;3.13;;
57800;SDS011;43627;42.728;23.256;2023-05-14T09:19:43;6.43;;;3.63;;
57800;SDS011;43627;42.728;23.256;2023-05-14T09:22:12;4.85;;;2.95;;
57800;SDS011;43627;42.728;23.256;2023-05-14T09:24:40;6.78;;;3.80;;
57800;SDS011;43627;42.728;23.256;2023-05-14T09:27:08;9.10;;;3.50;;
57800;SDS011;43627;42.728;23.256;2023-05-14T09:29:40;2.50;;;2.22;;
57800;SDS011;43627;42.728;23.256;2023-05-14T09:32:07;4.15;;;2.85;;
57800;SDS011;43627;42.728;23.256;2023-05-14T09:34:36;5.13;;;3.17;;
57800;SDS011;43627;42.728;23.256;2023-05-14T09:37:04;5.45;;;3.72;;
57800;SDS011;43627;42.728;23.256;2023-05-14T09:39:32;5.25;;;2.60;;
57800;SDS011;43627;42.728;23.256;2023-05-14T09:42:01;4.55;;;2.80;;
57800;SDS011;43627;42.728;23.256;2023-05-14T09:44:28;7.47;;;3.92;;
57800;SDS011;43627;42.728;23.256;2023-05-14T09:46:55;4.97;;;2.78;;
57800;SDS011;43627;42.728;23.256;2023-05-14T09:49:22;6.57;;;3.33;;
57800;SDS011;43627;42.728;23.256;2023-05-14T09:51:49;4.25;;;2.83;;
57800;SDS011;43627;42.728;23.256;2023-05-14T09:54:16;2.63;;;2.15;;
57800;SDS011;43627;42.728;23.256;2023-05-14T09:56:43;5.10;;;3.05;;
57800;SDS011;43627;42.728;23.256;2023-05-14T09:59:10;4.88;;;3.10;;
57800;SDS011;43627;42.728;23.256;2023-05-14T10:01:37;3.70;;;2.92;;
57800;SDS011;43627;42.728;23.256;2023-05-14T10:04:05;9.90;;;4.82;;
57800;SDS011;43627;42.728;23.256;2023-05-14T10:06:35;5.05;;;3.15;;
57800;SDS011;43627;42.728;23.256;2023-05-14T10:09:04;4.75;;;2.67;;
57800;SDS011;43627;42.728;23.256;2023-05-14T10:11:36;4.07;;;2.70;;
57800;SDS011;43627;42.728;23.256;2023-05-14T10:14:07;3.65;;;2.78;;
57800;SDS011;43627;42.728;23.256;2023-05-14T10:16:39;5.80;;;3.45;;
57800;SDS011;43627;42.728;23.256;2023-05-14T10:19:31;5.10;;;3.03;;
57800;SDS011;43627;42.728;23.256;2023-05-14T10:22:22;4.85;;;2.67;;
57800;SDS011;43627;42.728;23.256;2023-05-14T10:25:24;6.93;;;2.95;;
57800;SDS011;43627;42.728;23.256;2023-05-14T10:28:19;4.43;;;2.40;;
57800;SDS011;43627;42.728;23.256;2023-05-14T10:30:51;4.75;;;2.88;;
57800;SDS011;43627;42.728;23.256;2023-05-14T10:33:34;7.88;;;4.03;;
57800;SDS011;43627;42.728;23.256;2023-05-14T10:36:35;4.72;;;3.42;;
57800;SDS011;43627;42.728;23.256;2023-05-14T10:39:41;5.15;;;3.67;;
57800;SDS011;43627;42.728;23.256;2023-05-14T10:45:21;7.15;;;4.05;;
57800;SDS011;43627;42.728;23.256;2023-05-14T10:48:07;6.90;;;3.72;;
57800;SDS011;43627;42.728;23.256;2023-05-14T10:50:54;5.00;;;3.25;;
57800;SDS011;43627;42.728;23.256;2023-05-14T10:53:36;5.13;;;3.53;;
57800;SDS011;43627;42.728;23.256;2023-05-14T10:56:16;4.35;;;3.28;;
57800;SDS011;43627;42.728;23.256;2023-05-14T10:59:05;6.68;;;3.60;;
57800;SDS011;43627;42.728;23.256;2023-05-14T11:01:38;7.65;;;3.65;;
57800;SDS011;43627;42.728;23.256;2023-05-14T11:04:17;6.93;;;3.88;;
57800;SDS011;43627;42.728;23.256;2023-05-14T11:06:55;7.03;;;4.05;;
57800;SDS011;43627;42.728;23.256;2023-05-14T11:09:41;8.63;;;3.70;;
57800;SDS011;43627;42.728;23.256;2023-05-14T11:13:03;6.85;;;3.70;;
57800;SDS011;43627;42.728;23.256;2023-05-14T11:15:58;5.65;;;3.38;;
57800;SDS011;43627;42.728;23.256;2023-05-14T11:18:38;9.95;;;5.63;;
57800;SDS011;43627;42.728;23.256;2023-05-14T11:21:13;7.75;;;3.63;;
57800;SDS011;43627;42.728;23.256;2023-05-14T11:24:13;4.97;;;3.47;;
57800;SDS011;43627;42.728;23.256;2023-05-14T11:26:51;6.70;;;4.50;;
57800;SDS011;43627;42.728;23.256;2023-05-14T11:29:18;6.53;;;3.63;;
57800;SDS011;43627;42.728;23.256;2023-05-14T11:31:58;5.90;;;3.78;;
57800;SDS011;43627;42.728;23.256;2023-05-14T11:34:27;5.25;;;3.40;;
57800;SDS011;43627;42.728;23.256;2023-05-14T11:36:54;9.27;;;4.43;;
57800;SDS011;43627;42.728;23.256;2023-05-14T11:39:21;5.38;;;3.55;;
57800;SDS011;43627;42.728;23.256;2023-05-14T11:41:49;6.35;;;4.25;;
57800;SDS011;43627;42.728;23.256;2023-05-14T11:44:16;4.40;;;3.28;;
57800;SDS011;43627;42.728;23.256;2023-05-14T11:46:52;8.68;;;4.05;;
57800;SDS011;43627;42.728;23.256;2023-05-14T11:49:28;5.50;;;3.55;;
57800;SDS011;43627;42.728;23.256;2023-05-14T11:52:07;4.75;;;3.50;;
57800;SDS011;43627;42.728;23.256;2023-05-14T11:54:37;8.02;;;3.97;;
57800;SDS011;43627;42.728;23.256;2023-05-14T11:57:11;13.93;;;8.20;;
57800;SDS011;43627;42.728;23.256;2023-05-14T11:59:42;5.25;;;3.38;;
57800;SDS011;43627;42.728;23.256;2023-05-14T12:02:14;6.30;;;3.63;;
57800;SDS011;43627;42.728;23.256;2023-05-14T12:04:49;5.93;;;3.95;;
57800;SDS011;43627;42.728;23.256;2023-05-14T12:07:19;6.38;;;4.30;;
57800;SDS011;43627;42.728;23.256;2023-05-14T12:09:51;6.50;;;3.88;;
57800;SDS011;43627;42.728;23.256;2023-05-14T12:12:20;4.78;;;3.20;;
57800;SDS011;43627;42.728;23.256;2023-05-14T12:20:19;7.03;;;3.10;;
57800;SDS011;43627;42.728;23.256;2023-05-14T12:23:08;4.75;;;3.45;;
57800;SDS011;43627;42.728;23.256;2023-05-14T12:25:48;12.32;;;4.07;;
57800;SDS011;43627;42.728;23.256;2023-05-14T12:28:19;5.30;;;3.42;;
57800;SDS011;43627;42.728;23.256;2023-05-14T12:30:54;4.32;;;3.22;;
57800;SDS011;43627;42.728;23.256;2023-05-14T12:33:28;7.40;;;3.92;;
57800;SDS011;43627;42.728;23.256;2023-05-14T12:35:56;4.68;;;3.42;;
57800;SDS011;43627;42.728;23.256;2023-05-14T12:38:31;6.05;;;4.00;;
57800;SDS011;43627;42.728;23.256;2023-05-14T12:40:58;5.65;;;3.08;;
57800;SDS011;43627;42.728;23.256;2023-05-14T12:43:25;5.68;;;4.07;;
57800;SDS011;43627;42.728;23.256;2023-05-14T12:45:57;8.77;;;5.75;;
57800;SDS011;43627;42.728;23.256;2023-05-14T12:48:24;5.75;;;3.80;;
57800;SDS011;43627;42.728;23.256;2023-05-14T12:50:51;8.30;;;3.67;;
57800;SDS011;43627;42.728;23.256;2023-05-14T12:53:18;4.72;;;3.28;;
57800;SDS011;43627;42.728;23.256;2023-05-14T12:55:45;4.63;;;2.95;;
57800;SDS011;43627;42.728;23.256;2023-05-14T12:58:12;4.55;;;3.10;;
57800;SDS011;43627;42.728;23.256;2023-05-14T13:00:40;4.93;;;3.58;;
57800;SDS011;43627;42.728;23.256;2023-05-14T13:03:18;6.35;;;3.38;;
57800;SDS011;43627;42.728;23.256;2023-05-14T13:05:46;5.68;;;3.35;;
57800;SDS011;43627;42.728;23.256;2023-05-14T13:08:22;5.80;;;3.47;;
57800;SDS011;43627;42.728;23.256;2023-05-14T13:10:52;7.60;;;3.05;;
57800;SDS011;43627;42.728;23.256;2023-05-14T13:13:20;4.78;;;3.17;;
57800;SDS011;43627;42.728;23.256;2023-05-14T13:15:47;4.63;;;3.53;;
57800;SDS011;43627;42.728;23.256;2023-05-14T13:18:15;7.95;;;3.55;;
57800;SDS011;43627;42.728;23.256;2023-05-14T13:20:43;7.72;;;4.65;;
57800;SDS011;43627;42.728;23.256;2023-05-14T13:23:13;5.10;;;3.80;;
57800;SDS011;43627;42.728;23.256;2023-05-14T13:25:44;7.30;;;4.55;;
57800;SDS011;43627;42.728;23.256;2023-05-14T13:28:15;6.95;;;4.50;;
57800;SDS011;43627;42.728;23.256;2023-05-14T13:31:01;5.35;;;3.88;;
57800;SDS011;43627;42.728;23.256;2023-05-14T13:33:42;5.75;;;3.58;;
57800;SDS011;43627;42.728;23.256;2023-05-14T13:36:10;7.72;;;5.00;;
57800;SDS011;43627;42.728;23.256;2023-05-14T13:38:38;12.68;;;4.25;;
57800;SDS011;43627;42.728;23.256;2023-05-14T13:41:05;7.20;;;4.57;;
57800;SDS011;43627;42.728;23.256;2023-05-14T13:43:34;7.40;;;4.93;;
57800;SDS011;43627;42.728;23.256;2023-05-14T13:46:02;10.40;;;4.85;;
57800;SDS011;43627;42.728;23.256;2023-05-14T13:48:34;6.45;;;4.43;;
57800;SDS011;43627;42.728;23.256;2023-05-14T13:51:03;5.68;;;3.17;;
57800;SDS011;43627;42.728;23.256;2023-05-14T13:53:30;9.43;;;4.72;;
57800;SDS011;43627;42.728;23.256;2023-05-14T13:55:57;7.78;;;4.75;;
57800;SDS011;43627;42.728;23.256;2023-05-14T13:58:26;9.82;;;6.10;;
57800;SDS011;43627;42.728;23.256;2023-05-14T14:00:56;9.40;;;5.75;;
57800;SDS011;43627;42.728;23.256;2023-05-14T14:03:23;9.13;;;5.72;;
57800;SDS011;43627;42.728;23.256;2023-05-14T14:05:51;9.52;;;5.65;;
57800;SDS011;43627;42.728;23.256;2023-05-14T14:08:18;9.70;;;5.60;;
57800;SDS011;43627;42.728;23.256;2023-05-14T14:10:49;8.32;;;5.75;;
57800;SDS011;43627;42.728;23.256;2023-05-14T14:13:19;10.30;;;6.15;;
57800;SDS011;43627;42.728;23.256;2023-05-14T14:15:48;11.85;;;6.28;;
57800;SDS011;43627;42.728;23.256;2023-05-14T14:18:15;9.00;;;5.55;;
57800;SDS011;43627;42.728;23.256;2023-05-14T14:20:42;8.48;;;4.85;;
57800;SDS011;43627;42.728;23.256;2023-05-14T14:23:09;9.38;;;5.43;;
57800;SDS011;43627;42.728;23.256;2023-05-14T14:25:42;9.52;;;5.22;;
57800;SDS011;43627;42.728;23.256;2023-05-14T14:28:16;8.02;;;5.05;;
57800;SDS011;43627;42.728;23.256;2023-05-14T14:30:44;10.07;;;5.05;;
57800;SDS011;43627;42.728;23.256;2023-05-14T14:33:11;9.05;;;5.13;;
57800;SDS011;43627;42.728;23.256;2023-05-14T14:35:38;8.40;;;5.47;;
57800;SDS011;43627;42.728;23.256;2023-05-14T14:38:05;10.25;;;5.55;;
57800;SDS011;43627;42.728;23.256;2023-05-14T14:40:32;10.35;;;5.97;;
57800;SDS011;43627;42.728;23.256;2023-05-14T14:43:00;12.85;;;5.63;;
57800;SDS011;43627;42.728;23.256;2023-05-14T14:45:30;9.23;;;6.00;;
57800;SDS011;43627;42.728;23.256;2023-05-14T14:51:03;11.50;;;6.22;;
57800;SDS011;43627;42.728;23.256;2023-05-14T14:53:31;8.25;;;4.85;;
57800;SDS011;43627;42.728;23.256;2023-05-14T14:55:59;9.38;;;5.40;;
57800;SDS011;43627;42.728;23.256;2023-05-14T14:58:27;8.05;;;5.20;;
57800;SDS011;43627;42.728;23.256;2023-05-14T15:00:55;9.60;;;5.32;;
57800;SDS011;43627;42.728;23.256;2023-05-14T15:03:25;10.93;;;5.65;;
57800;SDS011;43627;42.728;23.256;2023-05-14T15:05:56;9.65;;;5.50;;